sensor_id;sensor_type;location;lat;lon;timestamp;pressure;altitude;pressure_sealevel;temperature
75428;BMP280;64008;55.612;37.698;2023-10-08T00:02:24;96359.09;;;14.12
75428;BMP280;64008;55.612;37.698;2023-10-08T00:04:53;96378.03;;;12.41
75428;BMP280;64008;55.612;37.698;2023-10-08T00:07:23;96453.72;;;11.95
75428;BMP280;64008;55.612;37.698;2023-10-08T00:09:53;96393.63;;;12.97
75428;BMP280;64008;55.612;37.698;2023-10-08T00:12:19;96435.00;;;12.68
75428;BMP280;64008;55.612;37.698;2023-10-08T00:14:45;96383.38;;;14.14
75428;BMP280;64008;55.612;37.698;2023-10-08T00:17:15;96387.53;;;12.42
75428;BMP280;64008;55.612;37.698;2023-10-08T00:19:42;96384.50;;;13.52
75428;BMP280;64008;55.612;37.698;2023-10-08T00:22:11;96425.47;;;13.42
75428;BMP280;64008;55.612;37.698;2023-10-08T00:24:40;96385.41;;;12.77
75428;BMP280;64008;55.612;37.698;2023-10-08T00:27:09;96377.91;;;12.58
75428;BMP280;64008;55.612;37.698;2023-10-08T00:29:35;96467.66;;;14.05
75428;BMP280;64008;55.612;37.698;2023-10-08T00:32:05;96452.66;;;12.76
75428;BMP280;64008;55.612;37.698;2023-10-08T00:34:40;96393.69;;;13.09
75428;BMP280;64008;55.612;37.698;2023-10-08T00:37:11;96391.03;;;12.04
75428;BMP280;64008;55.612;37.698;2023-10-08T00:39:40;96374.78;;;13.56
75428;BMP280;64008;55.612;37.698;2023-10-08T00:42:06;96410.47;;;12.29
75428;BMP280;64008;55.612;37.698;2023-10-08T00:44:34;96419.44;;;13.21
75428;BMP280;64008;55.612;37.698;2023-10-08T00:47:19;96403.78;;;12.52
75428;BMP280;64008;55.612;37.698;2023-10-08T00:49:47;96406.31;;;13.24
75428;BMP280;64008;55.612;37.698;2023-10-08T00:52:28;96396.50;;;12.20
75428;BMP280;64008;55.612;37.698;2023-10-08T00:55:04;96380.63;;;13.04
75428;BMP280;64008;55.612;37.698;2023-10-08T00:57:30;96398.75;;;10.62
75428;BMP280;64008;55.612;37.698;2023-10-08T00:59:59;96376.44;;;13.03
75428;BMP280;64008;55.612;37.698;2023-10-08T01:02:27;96417.00;;;12.95
75428;BMP280;64008;55.612;37.698;2023-10-08T01:04:54;96371.19;;;12.40
75428;BMP280;64008;55.612;37.698;2023-10-08T01:07:24;96433.88;;;13.11
75428;BMP280;64008;55.612;37.698;2023-10-08T01:09:50;96374.34;;;13.42
75428;BMP280;64008;55.612;37.698;2023-10-08T01:12:23;96406.53;;;12.35
75428;BMP280;64008;55.612;37.698;2023-10-08T01:14:55;96407.00;;;13.46
75428;BMP280;64008;55.612;37.698;2023-10-08T01:17:30;96440.59;;;14.65
75428;BMP280;64008;55.612;37.698;2023-10-08T01:19:58;96452.06;;;13.46
75428;BMP280;64008;55.612;37.698;2023-10-08T01:22:45;96389.78;;;12.94
75428;BMP280;64008;55.612;37.698;2023-10-08T01:25:11;96409.34;;;13.02
75428;BMP280;64008;55.612;37.698;2023-10-08T01:27:45;96375.69;;;13.02
75428;BMP280;64008;55.612;37.698;2023-10-08T01:30:12;96411.41;;;11.47
75428;BMP280;64008;55.612;37.698;2023-10-08T01:32:46;96424.66;;;10.52
75428;BMP280;64008;55.612;37.698;2023-10-08T01:35:12;96455.97;;;12.14
75428;BMP280;64008;55.612;37.698;2023-10-08T01:37:51;96457.59;;;11.24
75428;BMP280;64008;55.612;37.698;2023-10-08T01:40:18;96437.59;;;13.43
75428;BMP280;64008;55.612;37.698;2023-10-08T01:42:44;96426.00;;;12.60
75428;BMP280;64008;55.612;37.698;2023-10-08T01:45:11;96390.84;;;13.26
75428;BMP280;64008;55.612;37.698;2023-10-08T01:47:44;96378.53;;;12.76
75428;BMP280;64008;55.612;37.698;2023-10-08T01:50:10;96400.03;;;11.64
75428;BMP280;64008;55.612;37.698;2023-10-08T01:52:49;96386.84;;;13.90
75428;BMP280;64008;55.612;37.698;2023-10-08T01:55:17;96385.75;;;12.55
75428;BMP280;64008;55.612;37.698;2023-10-08T01:57:48;96381.41;;;13.62
75428;BMP280;64008;55.612;37.698;2023-10-08T02:00:14;96432.44;;;11.91
75428;BMP280;64008;55.612;37.698;2023-10-08T02:02:48;96443.28;;;11.60
75428;BMP280;64008;55.612;37.698;2023-10-08T02:05:18;96387.97;;;12.44
75428;BMP280;64008;55.612;37.698;2023-10-08T02:07:47;96414.25;;;11.07
75428;BMP280;64008;55.612;37.698;2023-10-08T02:10:13;96427.47;;;12.49
75428;BMP280;64008;55.612;37.698;2023-10-08T02:12:41;96396.88;;;12.81
75428;BMP280;64008;55.612;37.698;2023-10-08T02:15:08;96405.34;;;11.64
75428;BMP280;64008;55.612;37.698;2023-10-08T02:17:34;96428.59;;;11.80
75428;BMP280;64008;55.612;37.698;2023-10-08T02:20:00;96377.03;;;11.95
75428;BMP280;64008;55.612;37.698;2023-10-08T02:22:30;96392.81;;;13.75
75428;BMP280;64008;55.612;37.698;2023-10-08T02:24:55;96381.75;;;13.48
75428;BMP280;64008;55.612;37.698;2023-10-08T02:27:27;96365.41;;;12.67
75428;BMP280;64008;55.612;37.698;2023-10-08T02:29:52;96401.34;;;11.41
75428;BMP280;64008;55.612;37.698;2023-10-08T02:32:18;96377.22;;;13.49
75428;BMP280;64008;55.612;37.698;2023-10-08T02:34:44;96399.50;;;11.24
75428;BMP280;64008;55.612;37.698;2023-10-08T02:37:10;96418.47;;;13.25
75428;BMP280;64008;55.612;37.698;2023-10-08T02:39:38;96416.22;;;12.31
75428;BMP280;64008;55.612;37.698;2023-10-08T02:42:05;96378.09;;;13.53
75428;BMP280;64008;55.612;37.698;2023-10-08T02:44:36;96397.66;;;12.82
75428;BMP280;64008;55.612;37.698;2023-10-08T02:47:10;96390.09;;;13.38
75428;BMP280;64008;55.612;37.698;2023-10-08T02:49:47;96389.59;;;13.69
75428;BMP280;64008;55.612;37.698;2023-10-08T02:52:18;96400.50;;;12.56
75428;BMP280;64008;55.612;37.698;2023-10-08T02:54:43;96397.13;;;11.96
75428;BMP280;64008;55.612;37.698;2023-10-08T02:57:10;96397.59;;;12.90
75428;BMP280;64008;55.612;37.698;2023-10-08T02:59:39;96375.19;;;11.48
75428;BMP280;64008;55.612;37.698;2023-10-08T03:02:11;96382.81;;;12.68
75428;BMP280;64008;55.612;37.698;2023-10-08T03:04:48;96414.63;;;12.39
75428;BMP280;64008;55.612;37.698;2023-10-08T03:07:16;96398.53;;;13.40
75428;BMP280;64008;55.612;37.698;2023-10-08T03:09:58;96394.09;;;11.03
75428;BMP280;64008;55.612;37.698;2023-10-08T03:12:46;96415.22;;;12.65
75428;BMP280;64008;55.612;37.698;2023-10-08T03:15:13;96382.22;;;12.63
75428;BMP280;64008;55.612;37.698;2023-10-08T03:17:42;96403.31;;;11.52
75428;BMP280;64008;55.612;37.698;2023-10-08T03:20:20;96386.06;;;12.23
75428;BMP280;64008;55.612;37.698;2023-10-08T03:23:17;96372.06;;;11.63
75428;BMP280;64008;55.612;37.698;2023-10-08T03:25:53;96372.19;;;12.26
75428;BMP280;64008;55.612;37.698;2023-10-08T03:28:24;96387.19;;;12.22
75428;BMP280;64008;55.612;37.698;2023-10-08T03:30:54;96384.69;;;13.22
75428;BMP280;64008;55.612;37.698;2023-10-08T03:33:34;96418.06;;;12.39
75428;BMP280;64008;55.612;37.698;2023-10-08T03:36:01;96404.50;;;11.81
75428;BMP280;64008;55.612;37.698;2023-10-08T03:38:35;96373.75;;;11.68
75428;BMP280;64008;55.612;37.698;2023-10-08T03:41:15;96391.19;;;11.90
75428;BMP280;64008;55.612;37.698;2023-10-08T03:43:45;96385.47;;;11.58
75428;BMP280;64008;55.612;37.698;2023-10-08T03:46:30;96404.16;;;11.36
75428;BMP280;64008;55.612;37.698;2023-10-08T03:48:57;96395.81;;;10.55
75428;BMP280;64008;55.612;37.698;2023-10-08T03:51:23;96371.44;;;11.58
75428;BMP280;64008;55.612;37.698;2023-10-08T03:53:53;96382.38;;;11.30
75428;BMP280;64008;55.612;37.698;2023-10-08T03:56:34;96421.28;;;11.03
75428;BMP280;64008;55.612;37.698;2023-10-08T03:59:04;96392.06;;;12.11
75428;BMP280;64008;55.612;37.698;2023-10-08T04:01:39;96444.81;;;11.52
75428;BMP280;64008;55.612;37.698;2023-10-08T04:04:06;96406.38;;;12.10
75428;BMP280;64008;55.612;37.698;2023-10-08T04:06:37;96387.19;;;11.45
75428;BMP280;64008;55.612;37.698;2023-10-08T04:09:05;96422.34;;;11.28
75428;BMP280;64008;55.612;37.698;2023-10-08T04:11:31;96372.84;;;12.23
75428;BMP280;64008;55.612;37.698;2023-10-08T04:14:03;96404.97;;;11.75
75428;BMP280;64008;55.612;37.698;2023-10-08T04:16:31;96383.38;;;10.73
75428;BMP280;64008;55.612;37.698;2023-10-08T04:18:57;96406.56;;;12.56
75428;BMP280;64008;55.612;37.698;2023-10-08T04:21:26;96386.66;;;11.69
75428;BMP280;64008;55.612;37.698;2023-10-08T04:23:55;96382.28;;;9.99
75428;BMP280;64008;55.612;37.698;2023-10-08T04:26:23;96395.47;;;9.99
75428;BMP280;64008;55.612;37.698;2023-10-08T04:28:55;96384.31;;;10.95
75428;BMP280;64008;55.612;37.698;2023-10-08T04:31:25;96394.53;;;12.17
75428;BMP280;64008;55.612;37.698;2023-10-08T04:33:54;96397.31;;;12.83
75428;BMP280;64008;55.612;37.698;2023-10-08T04:36:20;96402.47;;;11.78
75428;BMP280;64008;55.612;37.698;2023-10-08T04:38:46;96381.69;;;11.03
75428;BMP280;64008;55.612;37.698;2023-10-08T04:41:16;96376.44;;;10.11
75428;BMP280;64008;55.612;37.698;2023-10-08T04:43:45;96399.88;;;11.99
75428;BMP280;64008;55.612;37.698;2023-10-08T04:46:10;96488.91;;;11.86
75428;BMP280;64008;55.612;37.698;2023-10-08T04:48:57;96371.38;;;12.56
75428;BMP280;64008;55.612;37.698;2023-10-08T04:51:23;96386.88;;;11.47
75428;BMP280;64008;55.612;37.698;2023-10-08T04:53:49;96375.56;;;12.36
75428;BMP280;64008;55.612;37.698;2023-10-08T04:56:15;96392.38;;;12.10
75428;BMP280;64008;55.612;37.698;2023-10-08T04:58:44;96422.84;;;11.69
75428;BMP280;64008;55.612;37.698;2023-10-08T05:01:14;96403.47;;;11.56
75428;BMP280;64008;55.612;37.698;2023-10-08T05:06:21;96406.25;;;10.12
75428;BMP280;64008;55.612;37.698;2023-10-08T05:09:11;96393.34;;;12.26
75428;BMP280;64008;55.612;37.698;2023-10-08T05:11:51;96394.78;;;11.94
75428;BMP280;64008;55.612;37.698;2023-10-08T05:14:23;96393.41;;;11.88
75428;BMP280;64008;55.612;37.698;2023-10-08T05:17:01;96384.75;;;12.08
75428;BMP280;64008;55.612;37.698;2023-10-08T05:19:36;96392.22;;;10.95
75428;BMP280;64008;55.612;37.698;2023-10-08T05:22:16;96409.91;;;10.77
75428;BMP280;64008;55.612;37.698;2023-10-08T05:24:49;96440.81;;;12.31
75428;BMP280;64008;55.612;37.698;2023-10-08T05:27:37;96471.50;;;10.55
75428;BMP280;64008;55.612;37.698;2023-10-08T05:30:30;96412.06;;;10.66
75428;BMP280;64008;55.612;37.698;2023-10-08T05:33:18;96419.25;;;11.18
75428;BMP280;64008;55.612;37.698;2023-10-08T05:36:15;96422.16;;;11.51
75428;BMP280;64008;55.612;37.698;2023-10-08T05:38:53;96430.19;;;13.03
75428;BMP280;64008;55.612;37.698;2023-10-08T05:41:29;96426.25;;;11.78
75428;BMP280;64008;55.612;37.698;2023-10-08T05:44:05;96435.94;;;11.74
75428;BMP280;64008;55.612;37.698;2023-10-08T05:46:49;96470.50;;;12.67
75428;BMP280;64008;55.612;37.698;2023-10-08T05:49:21;96451.56;;;10.31
75428;BMP280;64008;55.612;37.698;2023-10-08T05:51:56;96433.75;;;12.15
75428;BMP280;64008;55.612;37.698;2023-10-08T05:54:23;96434.16;;;12.25
75428;BMP280;64008;55.612;37.698;2023-10-08T05:59:40;96413.81;;;10.70
75428;BMP280;64008;55.612;37.698;2023-10-08T06:02:25;96468.78;;;11.29
75428;BMP280;64008;55.612;37.698;2023-10-08T06:05:01;96454.94;;;12.86
75428;BMP280;64008;55.612;37.698;2023-10-08T06:07:43;96432.59;;;11.13
75428;BMP280;64008;55.612;37.698;2023-10-08T06:10:25;96439.75;;;11.03
75428;BMP280;64008;55.612;37.698;2023-10-08T06:13:05;96440.50;;;11.21
75428;BMP280;64008;55.612;37.698;2023-10-08T06:15:50;96453.06;;;10.15
75428;BMP280;64008;55.612;37.698;2023-10-08T06:18:16;96472.84;;;12.00
75428;BMP280;64008;55.612;37.698;2023-10-08T06:20:43;96461.47;;;10.74
75428;BMP280;64008;55.612;37.698;2023-10-08T06:23:14;96437.72;;;11.26
75428;BMP280;64008;55.612;37.698;2023-10-08T06:25:46;96436.88;;;11.52
75428;BMP280;64008;55.612;37.698;2023-10-08T06:28:14;96450.28;;;12.83
75428;BMP280;64008;55.612;37.698;2023-10-08T06:30:51;96439.75;;;12.24
75428;BMP280;64008;55.612;37.698;2023-10-08T06:33:20;96444.63;;;12.13
75428;BMP280;64008;55.612;37.698;2023-10-08T06:35:46;96430.59;;;12.72
75428;BMP280;64008;55.612;37.698;2023-10-08T06:38:33;96442.84;;;12.56
75428;BMP280;64008;55.612;37.698;2023-10-08T06:40:59;96429.03;;;13.59
75428;BMP280;64008;55.612;37.698;2023-10-08T06:43:35;96479.72;;;13.24
75428;BMP280;64008;55.612;37.698;2023-10-08T06:46:05;96442.91;;;12.17
75428;BMP280;64008;55.612;37.698;2023-10-08T06:48:33;96432.50;;;13.05
75428;BMP280;64008;55.612;37.698;2023-10-08T06:51:00;96454.38;;;14.05
75428;BMP280;64008;55.612;37.698;2023-10-08T06:53:35;96436.34;;;14.76
75428;BMP280;64008;55.612;37.698;2023-10-08T06:56:04;96473.75;;;15.11
75428;BMP280;64008;55.612;37.698;2023-10-08T06:58:30;96469.19;;;15.40
75428;BMP280;64008;55.612;37.698;2023-10-08T07:00:59;96497.38;;;14.60
75428;BMP280;64008;55.612;37.698;2023-10-08T07:03:33;96464.06;;;15.03
75428;BMP280;64008;55.612;37.698;2023-10-08T07:06:03;96526.66;;;14.88
75428;BMP280;64008;55.612;37.698;2023-10-08T07:08:42;96503.56;;;15.33
75428;BMP280;64008;55.612;37.698;2023-10-08T07:11:08;96462.09;;;15.60
75428;BMP280;64008;55.612;37.698;2023-10-08T07:13:37;96462.66;;;14.81
75428;BMP280;64008;55.612;37.698;2023-10-08T07:16:05;96468.28;;;15.80
75428;BMP280;64008;55.612;37.698;2023-10-08T07:18:39;96472.06;;;15.95
75428;BMP280;64008;55.612;37.698;2023-10-08T07:21:05;96442.84;;;15.19
75428;BMP280;64008;55.612;37.698;2023-10-08T07:23:39;96477.22;;;15.28
75428;BMP280;64008;55.612;37.698;2023-10-08T07:26:28;96461.25;;;15.88
75428;BMP280;64008;55.612;37.698;2023-10-08T07:29:05;96470.66;;;15.53
75428;BMP280;64008;55.612;37.698;2023-10-08T07:31:35;96512.19;;;15.58
75428;BMP280;64008;55.612;37.698;2023-10-08T07:34:02;96467.50;;;15.79
75428;BMP280;64008;55.612;37.698;2023-10-08T07:36:48;96455.53;;;15.26
75428;BMP280;64008;55.612;37.698;2023-10-08T07:39:15;96461.69;;;14.86
75428;BMP280;64008;55.612;37.698;2023-10-08T07:42:03;96487.22;;;15.63
75428;BMP280;64008;55.612;37.698;2023-10-08T07:44:33;96495.75;;;15.24
75428;BMP280;64008;55.612;37.698;2023-10-08T07:47:04;96488.97;;;15.71
75428;BMP280;64008;55.612;37.698;2023-10-08T07:49:33;96491.38;;;15.76
75428;BMP280;64008;55.612;37.698;2023-10-08T07:52:01;96468.50;;;16.07
75428;BMP280;64008;55.612;37.698;2023-10-08T07:54:30;96475.03;;;15.30
75428;BMP280;64008;55.612;37.698;2023-10-08T07:57:00;96468.44;;;15.11
75428;BMP280;64008;55.612;37.698;2023-10-08T08:02:23;96479.50;;;15.13
75428;BMP280;64008;55.612;37.698;2023-10-08T08:04:52;96480.94;;;14.83
75428;BMP280;64008;55.612;37.698;2023-10-08T08:07:19;96489.53;;;14.51
75428;BMP280;64008;55.612;37.698;2023-10-08T08:09:46;96481.94;;;14.78
75428;BMP280;64008;55.612;37.698;2023-10-08T08:12:18;96484.41;;;14.71
75428;BMP280;64008;55.612;37.698;2023-10-08T08:14:45;96497.59;;;14.55
75428;BMP280;64008;55.612;37.698;2023-10-08T08:17:10;96494.53;;;14.16
75428;BMP280;64008;55.612;37.698;2023-10-08T08:19:46;96504.66;;;16.08
75428;BMP280;64008;55.612;37.698;2023-10-08T08:22:13;96528.69;;;17.17
75428;BMP280;64008;55.612;37.698;2023-10-08T08:24:49;96500.06;;;17.57
75428;BMP280;64008;55.612;37.698;2023-10-08T08:27:19;96505.38;;;17.80
75428;BMP280;64008;55.612;37.698;2023-10-08T08:30:01;96527.28;;;18.12
75428;BMP280;64008;55.612;37.698;2023-10-08T08:32:39;96490.06;;;18.26
75428;BMP280;64008;55.612;37.698;2023-10-08T08:35:09;96495.03;;;18.28
75428;BMP280;64008;55.612;37.698;2023-10-08T08:37:35;96509.91;;;18.25
75428;BMP280;64008;55.612;37.698;2023-10-08T08:40:05;96536.81;;;18.40
75428;BMP280;64008;55.612;37.698;2023-10-08T08:42:50;96482.19;;;18.67
75428;BMP280;64008;55.612;37.698;2023-10-08T08:45:23;96513.97;;;18.72
75428;BMP280;64008;55.612;37.698;2023-10-08T08:47:52;96476.59;;;18.79
75428;BMP280;64008;55.612;37.698;2023-10-08T08:50:19;96506.78;;;19.14
75428;BMP280;64008;55.612;37.698;2023-10-08T08:52:47;96515.81;;;19.39
75428;BMP280;64008;55.612;37.698;2023-10-08T08:55:13;96534.72;;;18.83
75428;BMP280;64008;55.612;37.698;2023-10-08T08:57:49;96521.19;;;18.72
75428;BMP280;64008;55.612;37.698;2023-10-08T09:00:17;96518.56;;;18.75
75428;BMP280;64008;55.612;37.698;2023-10-08T09:02:47;96503.88;;;18.92
75428;BMP280;64008;55.612;37.698;2023-10-08T09:05:14;96527.97;;;18.96
75428;BMP280;64008;55.612;37.698;2023-10-08T09:08:04;96533.47;;;19.07
75428;BMP280;64008;55.612;37.698;2023-10-08T09:10:34;96517.13;;;19.15
75428;BMP280;64008;55.612;37.698;2023-10-08T09:13:06;96576.06;;;19.22
75428;BMP280;64008;55.612;37.698;2023-10-08T09:15:33;96526.13;;;19.34
75428;BMP280;64008;55.612;37.698;2023-10-08T09:17:59;96520.44;;;19.39
75428;BMP280;64008;55.612;37.698;2023-10-08T09:20:27;96532.16;;;19.27
75428;BMP280;64008;55.612;37.698;2023-10-08T09:25:39;96554.50;;;19.46
75428;BMP280;64008;55.612;37.698;2023-10-08T09:28:08;96554.94;;;19.51
75428;BMP280;64008;55.612;37.698;2023-10-08T09:30:34;96525.97;;;19.60
75428;BMP280;64008;55.612;37.698;2023-10-08T09:33:09;96573.75;;;19.58
75428;BMP280;64008;55.612;37.698;2023-10-08T09:35:35;96542.03;;;19.60
75428;BMP280;64008;55.612;37.698;2023-10-08T09:38:06;96538.75;;;19.81
75428;BMP280;64008;55.612;37.698;2023-10-08T09:40:39;96587.28;;;19.76
75428;BMP280;64008;55.612;37.698;2023-10-08T09:43:09;96609.94;;;19.86
75428;BMP280;64008;55.612;37.698;2023-10-08T09:45:37;96591.66;;;19.95
75428;BMP280;64008;55.612;37.698;2023-10-08T09:48:09;96533.00;;;19.79
75428;BMP280;64008;55.612;37.698;2023-10-08T09:50:40;96546.72;;;19.71
75428;BMP280;64008;55.612;37.698;2023-10-08T09:53:12;96538.38;;;19.83
75428;BMP280;64008;55.612;37.698;2023-10-08T09:58:16;96539.75;;;19.62
75428;BMP280;64008;55.612;37.698;2023-10-08T10:00:43;96541.72;;;20.24
75428;BMP280;64008;55.612;37.698;2023-10-08T10:03:10;96557.19;;;20.45
75428;BMP280;64008;55.612;37.698;2023-10-08T10:05:38;96607.03;;;20.53
75428;BMP280;64008;55.612;37.698;2023-10-08T10:08:04;96605.50;;;20.52
75428;BMP280;64008;55.612;37.698;2023-10-08T10:10:36;96553.44;;;20.64
75428;BMP280;64008;55.612;37.698;2023-10-08T10:13:04;96561.84;;;20.63
75428;BMP280;64008;55.612;37.698;2023-10-08T10:15:37;96654.91;;;20.59
75428;BMP280;64008;55.612;37.698;2023-10-08T10:18:16;96567.97;;;20.63
75428;BMP280;64008;55.612;37.698;2023-10-08T10:20:57;96592.91;;;20.64
75428;BMP280;64008;55.612;37.698;2023-10-08T10:23:39;96608.63;;;20.69
75428;BMP280;64008;55.612;37.698;2023-10-08T10:31:42;96570.41;;;20.97
75428;BMP280;64008;55.612;37.698;2023-10-08T10:34:11;96570.41;;;20.97
75428;BMP280;64008;55.612;37.698;2023-10-08T10:36:40;96599.63;;;21.13
75428;BMP280;64008;55.612;37.698;2023-10-08T10:39:10;96603.53;;;21.40
75428;BMP280;64008;55.612;37.698;2023-10-08T10:41:50;96565.47;;;21.06
75428;BMP280;64008;55.612;37.698;2023-10-08T10:44:16;96580.09;;;21.12
75428;BMP280;64008;55.612;37.698;2023-10-08T10:46:43;96606.50;;;21.03
75428;BMP280;64008;55.612;37.698;2023-10-08T10:49:18;96624.47;;;20.92
75428;BMP280;64008;55.612;37.698;2023-10-08T10:51:48;96583.56;;;21.20
75428;BMP280;64008;55.612;37.698;2023-10-08T10:54:25;96601.81;;;20.89
75428;BMP280;64008;55.612;37.698;2023-10-08T10:56:52;96606.75;;;20.77
75428;BMP280;64008;55.612;37.698;2023-10-08T10:59:33;96610.16;;;20.66
75428;BMP280;64008;55.612;37.698;2023-10-08T11:02:05;96621.59;;;20.60
75428;BMP280;64008;55.612;37.698;2023-10-08T11:04:34;96616.13;;;20.42
75428;BMP280;64008;55.612;37.698;2023-10-08T11:07:16;96592.38;;;20.37
75428;BMP280;64008;55.612;37.698;2023-10-08T11:09:43;96606.91;;;20.32
75428;BMP280;64008;55.612;37.698;2023-10-08T11:12:10;96592.75;;;20.35
75428;BMP280;64008;55.612;37.698;2023-10-08T11:14:40;96626.94;;;18.43
75428;BMP280;64008;55.612;37.698;2023-10-08T11:17:32;96620.94;;;16.35
75428;BMP280;64008;55.612;37.698;2023-10-08T11:19:58;96647.75;;;15.82
75428;BMP280;64008;55.612;37.698;2023-10-08T11:22:40;96628.47;;;15.57
75428;BMP280;64008;55.612;37.698;2023-10-08T11:25:21;96669.75;;;15.39
75428;BMP280;64008;55.612;37.698;2023-10-08T11:27:51;96609.44;;;14.90
75428;BMP280;64008;55.612;37.698;2023-10-08T11:30:24;96608.78;;;14.44
75428;BMP280;64008;55.612;37.698;2023-10-08T11:32:50;96665.22;;;15.15
75428;BMP280;64008;55.612;37.698;2023-10-08T11:35:15;96613.94;;;15.27
75428;BMP280;64008;55.612;37.698;2023-10-08T11:37:45;96648.25;;;14.46
75428;BMP280;64008;55.612;37.698;2023-10-08T11:40:23;96640.50;;;14.28
75428;BMP280;64008;55.612;37.698;2023-10-08T11:43:14;96604.78;;;14.99
75428;BMP280;64008;55.612;37.698;2023-10-08T11:45:44;96607.03;;;14.61
75428;BMP280;64008;55.612;37.698;2023-10-08T11:48:16;96607.25;;;14.55
75428;BMP280;64008;55.612;37.698;2023-10-08T11:50:54;96612.81;;;14.17
75428;BMP280;64008;55.612;37.698;2023-10-08T11:53:23;96609.31;;;13.59
75428;BMP280;64008;55.612;37.698;2023-10-08T11:55:50;96620.53;;;13.77
75428;BMP280;64008;55.612;37.698;2023-10-08T11:58:19;96631.47;;;13.75
75428;BMP280;64008;55.612;37.698;2023-10-08T12:00:47;96638.34;;;13.04
75428;BMP280;64008;55.612;37.698;2023-10-08T12:03:18;96616.16;;;13.39
75428;BMP280;64008;55.612;37.698;2023-10-08T12:05:47;96598.34;;;13.48
75428;BMP280;64008;55.612;37.698;2023-10-08T12:08:18;96597.66;;;13.72
75428;BMP280;64008;55.612;37.698;2023-10-08T12:10:45;96624.44;;;14.12
75428;BMP280;64008;55.612;37.698;2023-10-08T12:13:12;96641.06;;;14.34
75428;BMP280;64008;55.612;37.698;2023-10-08T12:15:38;96609.50;;;14.20
75428;BMP280;64008;55.612;37.698;2023-10-08T12:18:04;96623.19;;;14.55
75428;BMP280;64008;55.612;37.698;2023-10-08T12:20:49;96622.59;;;14.25
75428;BMP280;64008;55.612;37.698;2023-10-08T12:23:14;96607.94;;;13.73
75428;BMP280;64008;55.612;37.698;2023-10-08T12:25:55;96609.03;;;13.93
75428;BMP280;64008;55.612;37.698;2023-10-08T12:28:22;96603.03;;;12.91
75428;BMP280;64008;55.612;37.698;2023-10-08T12:30:49;96618.53;;;13.52
75428;BMP280;64008;55.612;37.698;2023-10-08T12:33:20;96614.78;;;14.08
75428;BMP280;64008;55.612;37.698;2023-10-08T12:35:47;96631.88;;;13.44
75428;BMP280;64008;55.612;37.698;2023-10-08T12:38:13;96607.31;;;13.89
75428;BMP280;64008;55.612;37.698;2023-10-08T12:40:40;96638.09;;;14.02
75428;BMP280;64008;55.612;37.698;2023-10-08T12:43:22;96617.03;;;13.85
75428;BMP280;64008;55.612;37.698;2023-10-08T12:45:51;96655.09;;;13.47
75428;BMP280;64008;55.612;37.698;2023-10-08T12:48:27;96606.09;;;13.32
75428;BMP280;64008;55.612;37.698;2023-10-08T12:50:56;96616.41;;;13.88
75428;BMP280;64008;55.612;37.698;2023-10-08T12:53:23;96611.72;;;13.09
75428;BMP280;64008;55.612;37.698;2023-10-08T12:56:08;96639.69;;;13.10
75428;BMP280;64008;55.612;37.698;2023-10-08T12:58:41;96607.84;;;13.49
75428;BMP280;64008;55.612;37.698;2023-10-08T13:01:10;96598.00;;;13.83
75428;BMP280;64008;55.612;37.698;2023-10-08T13:03:37;96603.88;;;13.13
75428;BMP280;64008;55.612;37.698;2023-10-08T13:06:13;96629.88;;;14.28
75428;BMP280;64008;55.612;37.698;2023-10-08T13:08:57;96616.03;;;13.14
75428;BMP280;64008;55.612;37.698;2023-10-08T13:11:25;96624.47;;;13.07
75428;BMP280;64008;55.612;37.698;2023-10-08T13:13:56;96609.00;;;12.88
75428;BMP280;64008;55.612;37.698;2023-10-08T13:16:27;96644.44;;;12.66
75428;BMP280;64008;55.612;37.698;2023-10-08T13:18:57;96609.75;;;13.61
75428;BMP280;64008;55.612;37.698;2023-10-08T13:21:24;96620.44;;;12.71
75428;BMP280;64008;55.612;37.698;2023-10-08T13:23:53;96625.59;;;12.68
75428;BMP280;64008;55.612;37.698;2023-10-08T13:26:22;96616.78;;;12.46
75428;BMP280;64008;55.612;37.698;2023-10-08T13:28:50;96642.38;;;12.81
75428;BMP280;64008;55.612;37.698;2023-10-08T13:31:16;96643.00;;;13.16
75428;BMP280;64008;55.612;37.698;2023-10-08T13:33:44;96639.19;;;13.47
75428;BMP280;64008;55.612;37.698;2023-10-08T13:36:14;96644.59;;;13.92
75428;BMP280;64008;55.612;37.698;2023-10-08T13:38:41;96642.72;;;13.51
75428;BMP280;64008;55.612;37.698;2023-10-08T13:41:08;96621.19;;;13.52
75428;BMP280;64008;55.612;37.698;2023-10-08T13:43:47;96612.84;;;13.00
75428;BMP280;64008;55.612;37.698;2023-10-08T13:46:17;96631.00;;;13.10
75428;BMP280;64008;55.612;37.698;2023-10-08T13:48:45;96606.53;;;13.04
75428;BMP280;64008;55.612;37.698;2023-10-08T13:51:21;96625.72;;;13.31
75428;BMP280;64008;55.612;37.698;2023-10-08T13:53:55;96637.34;;;13.18
75428;BMP280;64008;55.612;37.698;2023-10-08T13:56:29;96621.97;;;12.81
75428;BMP280;64008;55.612;37.698;2023-10-08T13:58:58;96632.41;;;12.78
75428;BMP280;64008;55.612;37.698;2023-10-08T14:01:50;96616.44;;;12.48
75428;BMP280;64008;55.612;37.698;2023-10-08T14:04:20;96625.56;;;12.21
75428;BMP280;64008;55.612;37.698;2023-10-08T14:06:51;96623.31;;;12.49
75428;BMP280;64008;55.612;37.698;2023-10-08T14:09:18;96613.44;;;13.26
75428;BMP280;64008;55.612;37.698;2023-10-08T14:11:56;96614.34;;;13.09
75428;BMP280;64008;55.612;37.698;2023-10-08T14:14:22;96632.00;;;12.97
75428;BMP280;64008;55.612;37.698;2023-10-08T14:16:50;96629.03;;;12.98
75428;BMP280;64008;55.612;37.698;2023-10-08T14:19:19;96617.13;;;13.04
75428;BMP280;64008;55.612;37.698;2023-10-08T14:21:53;96627.31;;;13.53
75428;BMP280;64008;55.612;37.698;2023-10-08T14:24:25;96619.03;;;13.04
75428;BMP280;64008;55.612;37.698;2023-10-08T14:26:53;96603.44;;;13.53
75428;BMP280;64008;55.612;37.698;2023-10-08T14:29:22;96621.69;;;13.25
75428;BMP280;64008;55.612;37.698;2023-10-08T14:31:50;96619.50;;;12.29
75428;BMP280;64008;55.612;37.698;2023-10-08T14:34:18;96644.09;;;13.36
75428;BMP280;64008;55.612;37.698;2023-10-08T14:36:49;96606.22;;;13.90
75428;BMP280;64008;55.612;37.698;2023-10-08T14:39:35;96618.38;;;12.30
75428;BMP280;64008;55.612;37.698;2023-10-08T14:42:19;96613.88;;;12.78